This is the latest recevied weather packets stored in our database for station/object KO4LFZ. If no packets are shown the sender has not sent any weather packets the latest 10 day(s).
| Time | Temp. | Humidity | Pressure | Rain* | Wind** | Luminosity | Snow |
|---|---|---|---|---|---|---|---|
| 1777717640 | 5.56° C | 96% | 1016.8 hPa | 0 mm | - | 0 W/m² | - |
| 1777717336 | 5.56° C | 96% | 1016.6 hPa | 0 mm | - | 0 W/m² | - |
| 1777717034 | 6.11° C | 96% | 1016.7 hPa | 0 mm | - | 0 W/m² | - |
| 1777716733 | 5.56° C | 96% | 1016.6 hPa | 0 mm | - | 0 W/m² | - |
| 1777716430 | 5.56° C | 96% | 1016.5 hPa | 0 mm | - | 0 W/m² | - |
| 1777716128 | 6.11° C | 95% | 1016.4 hPa | 0 mm | - | 0 W/m² | - |
| 1777715827 | 6.11° C | 96% | 1016.4 hPa | 0 mm | - | 0 W/m² | - |
| 1777715524 | 6.11° C | 96% | 1016.4 hPa | 0 mm | - | 0 W/m² | - |
| 1777715221 | 6.11° C | 96% | 1016.3 hPa | 0 mm | - | 0 W/m² | - |
| 1777714919 | 5.56° C | 95% | 1016.5 hPa | 0 mm | - | 0 W/m² | - |
| 1777714617 | 5.56° C | 95% | 1016.4 hPa | 0 mm | - | 0 W/m² | - |
| 1777714314 | 5.56° C | 94% | 1016.5 hPa | 0 mm | - | 0 W/m² | - |
| 1777714012 | 5.56° C | 94% | 1016.2 hPa | 0 mm | - | 0 W/m² | - |
| 1777713709 | 6.11° C | 94% | 1016.1 hPa | 0 mm | - | 0 W/m² | - |
| 1777713406 | 6.11° C | 95% | 1016.2 hPa | 0 mm | - | 0 W/m² | - |
| 1777713103 | 5.56° C | 94% | 1016.3 hPa | 0 mm | - | 0 W/m² | - |
| 1777712800 | 6.11° C | 94% | 1016.1 hPa | 0 mm | - | 0 W/m² | - |
| 1777712496 | 6.11° C | 94% | 1016 hPa | 0 mm | - | 0 W/m² | - |
| 1777712193 | 6.11° C | 94% | 1016.2 hPa | 0 mm | - | 0 W/m² | - |
| 1777711890 | 6.11° C | 93% | 1016.2 hPa | 0 mm | - | 0 W/m² | - |
| 1777711587 | 6.11° C | 93% | 1016.1 hPa | 0 mm | - | 0 W/m² | - |
| 1777711281 | 6.11° C | 93% | 1016.1 hPa | 0 mm | - | 0 W/m² | - |
| 1777710979 | 6.67° C | 93% | 1016.5 hPa | 0 mm | - | 0 W/m² | - |
| 1777658838 | 16.67° C | 38% | 1017 hPa | 0 mm | - | 721 W/m² | - |
| 1777658533 | 17.22° C | 39% | 1017.3 hPa | 0 mm | - | 707 W/m² | - |
* Rain latest hour (hover to see other rain measurements)
** Current wind speed in m/s (hover to see current wind gust speed)